createdAt,value
2019-03-10T00:01:38.009Z,92.20
2019-03-10T00:04:16.300Z,91.90
2019-03-10T00:06:54.228Z,91.80
2019-03-10T00:09:34.153Z,92.10
2019-03-10T00:12:13.048Z,92.00
2019-03-10T00:14:50.943Z,91.60
2019-03-10T00:17:29.176Z,90.70
2019-03-10T00:20:07.846Z,90.70
2019-03-10T00:22:46.720Z,90.60
2019-03-10T00:25:24.294Z,90.40
2019-03-10T00:28:12.674Z,90.10
2019-03-10T00:30:53.917Z,90.10
2019-03-10T00:33:35.317Z,90.00
2019-03-10T00:36:15.689Z,89.70
2019-03-10T00:39:27.996Z,89.70
2019-03-10T00:42:55.377Z,89.40
2019-03-10T00:46:10.260Z,88.90
2019-03-10T00:49:44.551Z,87.60
2019-03-10T00:52:31.602Z,87.10
2019-03-10T00:55:09.559Z,88.10
2019-03-10T00:57:47.336Z,87.90
2019-03-10T01:00:27.683Z,86.10
2019-03-10T01:03:07.873Z,85.40
2019-03-10T01:05:47.194Z,84.50
2019-03-10T01:08:35.332Z,84.20
2019-03-10T01:11:15.083Z,84.20
2019-03-10T01:13:58.792Z,81.60
2019-03-10T01:16:42.309Z,81.50
2019-03-10T01:19:23.742Z,80.70
2019-03-10T01:22:02.556Z,79.30
2019-03-10T01:24:41.094Z,78.20
2019-03-10T01:27:19.381Z,78.60
2019-03-10T01:29:58.426Z,79.00
2019-03-10T01:33:18.945Z,77.60
2019-03-10T01:35:57.329Z,77.70
2019-03-10T01:38:38.852Z,77.70
2019-03-10T01:41:17.435Z,79.30
2019-03-10T01:43:57.314Z,80.80
2019-03-10T01:46:38.853Z,81.60
2019-03-10T01:49:17.336Z,80.00
2019-03-10T01:51:55.289Z,78.60
2019-03-10T01:54:36.851Z,77.40
2019-03-10T01:57:19.077Z,75.70
2019-03-10T01:59:57.459Z,77.00
2019-03-10T02:02:35.968Z,78.60
2019-03-10T02:05:15.179Z,77.50
2019-03-10T02:07:57.516Z,78.20
2019-03-10T02:10:38.685Z,78.10
2019-03-10T02:13:20.096Z,78.30
2019-03-10T02:16:02.004Z,75.40
2019-03-10T02:18:40.532Z,74.40
2019-03-10T02:21:21.978Z,73.70
2019-03-10T02:24:01.637Z,73.40
2019-03-10T02:26:39.148Z,69.00
2019-03-10T02:29:17.846Z,70.50
2019-03-10T02:31:56.269Z,69.80
2019-03-10T02:34:34.564Z,71.20
2019-03-10T02:37:12.564Z,72.50
2019-03-10T02:39:51.005Z,73.80
2019-03-10T02:42:29.495Z,74.80
2019-03-10T02:45:08.183Z,75.20
2019-03-10T02:47:47.071Z,76.30
2019-03-10T02:50:25.416Z,77.00
2019-03-10T02:53:03.498Z,77.50
2019-03-10T02:55:43.020Z,75.70
2019-03-10T02:58:23.405Z,73.50
2019-03-10T03:01:01.714Z,69.70
2019-03-10T03:03:40.630Z,68.00
2019-03-10T03:06:19.058Z,67.30
2019-03-10T03:08:57.163Z,66.20
2019-03-10T03:11:34.843Z,64.80
2019-03-10T03:14:15.442Z,64.70
2019-03-10T03:16:54.625Z,66.90
2019-03-10T03:19:33.553Z,69.60
2019-03-10T03:22:11.830Z,71.20
2019-03-10T03:24:50.377Z,70.60
2019-03-10T03:27:28.635Z,71.30
2019-03-10T03:30:06.931Z,73.70
2019-03-10T03:32:46.595Z,75.80
2019-03-10T03:36:00.005Z,74.40
2019-03-10T03:38:47.437Z,72.20
2019-03-10T03:41:26.817Z,68.90
2019-03-10T03:44:07.034Z,68.80
2019-03-10T03:46:45.344Z,65.90
2019-03-10T03:49:24.817Z,65.20
2019-03-10T03:52:05.278Z,66.70
2019-03-10T03:54:45.441Z,66.30
2019-03-10T03:57:24.228Z,65.50
2019-03-10T04:00:02.926Z,67.00
2019-03-10T04:02:42.157Z,67.20
2019-03-10T04:05:22.435Z,69.80
2019-03-10T04:08:00.344Z,72.30
2019-03-10T04:10:41.364Z,72.40
2019-03-10T04:13:20.693Z,68.50
2019-03-10T04:16:00.068Z,68.20
2019-03-10T04:18:38.417Z,67.00
2019-03-10T04:21:17.370Z,66.70
2019-03-10T04:23:56.827Z,62.60
2019-03-10T04:26:35.120Z,64.00
2019-03-10T04:29:14.673Z,63.70
2019-03-10T04:31:52.733Z,63.30
2019-03-10T04:34:31.538Z,64.00
2019-03-10T04:37:10.294Z,63.60
2019-03-10T04:39:58.704Z,62.00
2019-03-10T04:42:37.493Z,61.60
2019-03-10T04:45:15.207Z,60.00
2019-03-10T04:47:53.722Z,60.10
2019-03-10T04:50:32.460Z,62.00
2019-03-10T04:53:14.879Z,63.00
2019-03-10T04:55:58.935Z,64.10
2019-03-10T04:58:40.625Z,63.10
2019-03-10T05:01:27.035Z,62.70
2019-03-10T05:04:06.797Z,59.80
2019-03-10T05:06:47.395Z,62.90
2019-03-10T05:09:27.755Z,64.20
2019-03-10T05:12:20.853Z,62.70
2019-03-10T05:14:55.031Z,61.60
2019-03-10T05:17:33.808Z,61.70
2019-03-10T05:20:14.695Z,63.00
2019-03-10T05:22:54.191Z,60.90
2019-03-10T05:25:36.287Z,59.20
2019-03-10T05:28:16.375Z,57.70
2019-03-10T05:30:55.250Z,57.90
2019-03-10T05:33:35.983Z,59.30
2019-03-10T05:36:13.937Z,59.70
2019-03-10T05:38:53.916Z,59.90
2019-03-10T05:41:32.985Z,60.20
2019-03-10T05:44:15.331Z,61.20
2019-03-10T05:46:53.381Z,62.40
2019-03-10T05:49:31.683Z,59.80
2019-03-10T05:52:10.225Z,59.30
2019-03-10T05:54:51.228Z,59.80
2019-03-10T05:57:29.278Z,62.80
2019-03-10T06:00:13.616Z,59.90
2019-03-10T06:02:56.665Z,59.50
2019-03-10T06:05:43.976Z,61.20
2019-03-10T06:16:11.294Z,61.30
2019-03-10T06:18:51.435Z,61.10
2019-03-10T06:21:34.756Z,62.00
2019-03-10T06:24:15.869Z,62.50
2019-03-10T06:27:00.945Z,62.50
2019-03-10T06:29:44.182Z,63.10
2019-03-10T06:32:23.413Z,61.80
2019-03-10T06:35:06.768Z,63.10
2019-03-10T06:37:47.150Z,62.20
2019-03-10T06:40:32.114Z,62.80
2019-03-10T06:43:08.197Z,63.60
2019-03-10T06:45:49.443Z,62.30
2019-03-10T06:48:30.159Z,63.30
2019-03-10T06:51:10.822Z,64.10
2019-03-10T06:53:53.124Z,63.60
2019-03-10T06:56:33.283Z,64.40
2019-03-10T06:59:11.681Z,64.20
2019-03-10T07:01:53.412Z,64.10
2019-03-10T07:04:43.537Z,61.20
2019-03-10T07:07:22.372Z,61.40
2019-03-10T07:10:02.339Z,62.40
2019-03-10T07:12:42.050Z,62.70
2019-03-10T07:15:26.875Z,62.10
2019-03-10T07:18:06.710Z,63.60
2019-03-10T07:20:49.028Z,65.00
2019-03-10T07:23:26.708Z,63.70
2019-03-10T07:26:11.219Z,66.70
2019-03-10T07:28:57.683Z,69.20
2019-03-10T07:31:51.244Z,69.10
2019-03-10T07:34:44.432Z,68.40
2019-03-10T07:37:52.111Z,68.10
2019-03-10T07:40:54.305Z,67.50
2019-03-10T07:43:51.496Z,69.10
2019-03-10T07:46:56.394Z,68.70
2019-03-10T07:49:53.329Z,69.70
2019-03-10T07:53:02.285Z,70.00
2019-03-10T07:56:02.704Z,71.10
2019-03-10T07:59:04.058Z,71.00
2019-03-10T08:01:56.708Z,70.50
2019-03-10T08:05:05.309Z,69.70
2019-03-10T08:08:18.390Z,69.40
2019-03-10T08:11:28.584Z,70.90
2019-03-10T08:14:31.839Z,67.50
2019-03-10T08:17:42.884Z,69.00
2019-03-10T08:20:32.357Z,69.60
2019-03-10T08:23:26.168Z,70.70
2019-03-10T08:26:21.197Z,70.60
2019-03-10T08:29:16.546Z,69.40
2019-03-10T08:32:12.573Z,70.20
2019-03-10T08:35:19.964Z,71.10
2019-03-10T08:38:20.919Z,70.40
2019-03-10T08:41:15.004Z,70.10
2019-03-10T08:44:14.029Z,71.20
2019-03-10T08:47:05.113Z,70.50
2019-03-10T08:50:07.576Z,70.70
2019-03-10T08:52:51.632Z,70.90
2019-03-10T08:55:47.344Z,70.80
2019-03-10T08:58:49.733Z,72.50
2019-03-10T09:02:02.134Z,70.80
2019-03-10T09:04:56.063Z,70.10
2019-03-10T09:07:49.669Z,70.10
2019-03-10T09:10:39.427Z,71.80
2019-03-10T09:13:55.882Z,71.60
2019-03-10T09:17:03.703Z,72.40
2019-03-10T09:21:05.157Z,70.00
2019-03-10T09:24:00.668Z,69.10
2019-03-10T09:26:51.821Z,68.60
2019-03-10T09:29:47.330Z,69.40
2019-03-10T09:36:27.575Z,67.90
2019-03-10T09:39:33.332Z,67.10
2019-03-10T09:42:40.499Z,65.60
2019-03-10T09:45:30.304Z,65.80
2019-03-10T09:48:26.828Z,65.00
2019-03-10T09:51:19.088Z,63.80
2019-03-10T09:54:25.073Z,60.10
2019-03-10T09:57:26.112Z,58.30
2019-03-10T10:00:20.545Z,61.60
2019-03-10T10:03:26.527Z,62.80
2019-03-10T10:06:33.418Z,63.00
2019-03-10T10:09:45.212Z,63.90
2019-03-10T10:12:37.791Z,64.40
2019-03-10T10:15:34.205Z,63.40
2019-03-10T10:18:33.285Z,62.60
2019-03-10T10:21:31.371Z,64.00
2019-03-10T10:24:25.648Z,64.70
2019-03-10T10:27:34.175Z,63.00
2019-03-10T10:30:26.379Z,63.90
2019-03-10T10:33:26.542Z,63.60
2019-03-10T10:36:29.099Z,62.80
2019-03-10T10:39:38.442Z,63.10
2019-03-10T10:42:50.989Z,64.80
2019-03-10T10:45:54.803Z,64.50
2019-03-10T10:48:50.793Z,65.40
2019-03-10T10:51:54.257Z,67.40
2019-03-10T10:54:48.086Z,69.00
2019-03-10T10:57:39.676Z,68.00
2019-03-10T11:00:28.026Z,66.30
2019-03-10T11:03:25.351Z,69.00
2019-03-10T11:06:12.895Z,70.30
2019-03-10T11:09:07.514Z,70.90
2019-03-10T11:12:10.081Z,71.10
2019-03-10T11:15:20.532Z,72.30
2019-03-10T11:18:23.532Z,72.80
2019-03-10T11:21:22.302Z,73.50
2019-03-10T11:24:12.847Z,74.10
2019-03-10T11:27:12.976Z,74.30
2019-03-10T11:30:27.110Z,75.40
2019-03-10T11:33:19.265Z,77.40
2019-03-10T11:36:18.283Z,78.10
2019-03-10T11:39:27.214Z,78.40
2019-03-10T11:42:14.983Z,79.10
2019-03-10T11:45:19.358Z,79.70
2019-03-10T11:48:04.399Z,79.70
2019-03-10T11:51:02.857Z,78.50
2019-03-10T11:53:50.271Z,78.50
2019-03-10T11:56:42.942Z,80.70
2019-03-10T11:59:34.832Z,82.40
2019-03-10T12:02:25.445Z,84.60
2019-03-10T12:05:21.819Z,84.90
2019-03-10T12:08:08.708Z,85.00
2019-03-10T12:10:47.560Z,86.60
2019-03-10T12:13:25.844Z,87.90
2019-03-10T12:16:03.992Z,89.90
2019-03-10T12:18:44.385Z,90.00
2019-03-10T12:21:23.939Z,90.10
2019-03-10T12:24:07.308Z,90.40
2019-03-10T12:26:49.789Z,90.50
2019-03-10T12:29:28.769Z,90.30
2019-03-10T12:32:07.464Z,90.20
2019-03-10T12:34:46.830Z,90.20
2019-03-10T12:37:25.187Z,90.20
2019-03-10T12:40:03.721Z,89.80
2019-03-10T12:42:44.468Z,89.80
2019-03-10T12:45:22.649Z,89.20
2019-03-10T12:48:02.159Z,88.90
2019-03-10T12:50:40.937Z,88.30
2019-03-10T12:53:19.889Z,87.70
2019-03-10T12:56:00.157Z,88.30
2019-03-10T12:58:39.014Z,89.30
2019-03-10T13:01:18.361Z,88.80
2019-03-10T13:03:59.026Z,88.10
2019-03-10T13:06:37.656Z,87.90
2019-03-10T13:09:17.254Z,88.90
